createdAt,value
2022-08-25T00:01:26.990Z,8.77
2022-08-25T00:03:58.926Z,9.85
2022-08-25T00:06:27.755Z,11.35
2022-08-25T00:08:59.583Z,11.23
2022-08-25T00:11:30.143Z,11.48
2022-08-25T00:14:01.999Z,10.73
2022-08-25T00:16:31.434Z,9.57
2022-08-25T00:19:03.398Z,11.27
2022-08-25T00:21:32.600Z,12.52
2022-08-25T00:24:02.269Z,13.25
2022-08-25T00:26:31.207Z,10.55
2022-08-25T00:29:01.602Z,10.68
2022-08-25T00:31:38.413Z,12.57
2022-08-25T00:34:11.174Z,10.00
2022-08-25T00:36:40.077Z,12.43
2022-08-25T00:39:09.933Z,13.63
2022-08-25T00:41:39.632Z,11.35
2022-08-25T00:44:10.665Z,11.00
2022-08-25T00:46:40.927Z,9.90
2022-08-25T00:49:25.056Z,12.40
2022-08-25T00:52:00.293Z,11.77
2022-08-25T00:54:30.934Z,10.55
2022-08-25T00:57:00.394Z,11.65
2022-08-25T00:59:29.105Z,10.60
2022-08-25T01:01:58.932Z,12.70
2022-08-25T01:04:28.662Z,11.05
2022-08-25T01:06:59.302Z,9.45
2022-08-25T01:09:27.669Z,11.15
2022-08-25T01:11:55.941Z,13.40
2022-08-25T01:14:27.083Z,8.52
2022-08-25T01:16:55.354Z,10.85
2022-08-25T01:19:23.401Z,10.80
2022-08-25T01:21:55.033Z,13.05
2022-08-25T01:24:29.648Z,12.35
2022-08-25T01:26:57.963Z,12.23
2022-08-25T01:29:26.461Z,11.43
2022-08-25T01:32:00.792Z,9.52
2022-08-25T01:34:49.073Z,11.82
2022-08-25T01:37:21.698Z,10.52
2022-08-25T01:40:05.288Z,10.93
2022-08-25T01:43:09.672Z,13.38
2022-08-25T01:45:39.154Z,11.20
2022-08-25T01:51:02.498Z,11.00
2022-08-25T01:53:35.229Z,11.20
2022-08-25T01:56:12.860Z,10.75
2022-08-25T01:59:23.847Z,11.02
2022-08-25T02:01:59.661Z,14.02
2022-08-25T02:04:29.559Z,10.80
2022-08-25T02:06:57.735Z,15.93
2022-08-25T02:09:27.185Z,10.90
2022-08-25T02:11:56.745Z,10.80
2022-08-25T02:17:46.309Z,14.13
2022-08-25T02:20:14.358Z,12.85
2022-08-25T02:22:43.433Z,13.25
2022-08-25T02:25:21.444Z,11.82
2022-08-25T02:27:49.502Z,13.57
2022-08-25T02:30:18.184Z,12.05
2022-08-25T02:32:46.291Z,13.73
2022-08-25T02:35:14.634Z,11.98
2022-08-25T02:37:42.728Z,11.32
2022-08-25T02:40:11.958Z,12.20
2022-08-25T02:42:42.783Z,12.32
2022-08-25T02:45:11.078Z,13.43
2022-08-25T02:47:39.186Z,12.43
2022-08-25T02:50:08.546Z,16.42
2022-08-25T02:52:37.097Z,12.63
2022-08-25T02:55:07.422Z,12.07
2022-08-25T02:57:35.835Z,12.45
2022-08-25T03:00:06.960Z,12.07
2022-08-25T03:02:35.123Z,12.52
2022-08-25T03:05:03.267Z,13.45
2022-08-25T03:07:31.412Z,14.27
2022-08-25T03:10:07.787Z,14.57
2022-08-25T03:12:35.870Z,12.57
2022-08-25T03:15:09.295Z,14.20
2022-08-25T03:17:44.458Z,14.32
2022-08-25T03:20:14.527Z,14.68
2022-08-25T03:22:43.115Z,14.60
2022-08-25T03:25:29.237Z,14.00
2022-08-25T03:27:57.367Z,17.08
2022-08-25T03:30:27.288Z,14.20
2022-08-25T03:32:55.471Z,11.82
2022-08-25T03:35:23.729Z,13.10
2022-08-25T03:37:52.245Z,13.20
2022-08-25T03:40:20.837Z,13.85
2022-08-25T03:42:48.951Z,13.63
2022-08-25T03:45:20.894Z,13.90
2022-08-25T03:47:51.578Z,13.93
2022-08-25T03:50:21.541Z,13.95
2022-08-25T03:52:53.801Z,12.35
2022-08-25T03:55:23.921Z,12.90
2022-08-25T03:57:52.051Z,13.55
2022-08-25T04:00:20.882Z,15.43
2022-08-25T04:02:50.657Z,14.82
2022-08-25T04:05:20.292Z,13.40
2022-08-25T04:07:48.439Z,14.15
2022-08-25T04:10:16.834Z,16.88
2022-08-25T04:12:45.351Z,14.65
2022-08-25T04:15:13.530Z,13.45
2022-08-25T04:17:42.061Z,15.07
2022-08-25T04:20:14.072Z,13.50
2022-08-25T04:22:44.859Z,13.88
2022-08-25T04:25:14.191Z,13.95
2022-08-25T04:27:42.551Z,13.75
2022-08-25T04:30:12.077Z,16.05
2022-08-25T04:32:40.731Z,13.98
2022-08-25T04:35:09.614Z,14.50
2022-08-25T04:37:39.101Z,14.55
2022-08-25T04:40:08.506Z,13.73
2022-08-25T04:42:37.001Z,15.13
2022-08-25T04:45:06.201Z,16.35
2022-08-25T04:47:38.232Z,12.85
2022-08-25T04:50:07.772Z,16.92
2022-08-25T04:52:35.755Z,13.90
2022-08-25T04:55:05.841Z,13.95
2022-08-25T04:57:36.018Z,16.20
2022-08-25T05:00:05.876Z,16.67
2022-08-25T05:02:33.892Z,16.98
2022-08-25T05:05:04.014Z,16.88
2022-08-25T05:07:32.024Z,20.70
2022-08-25T05:10:00.414Z,18.13
2022-08-25T05:12:30.044Z,14.25
2022-08-25T05:15:21.883Z,17.58
2022-08-25T05:17:53.947Z,16.50
2022-08-25T05:20:24.153Z,16.23
2022-08-25T05:22:52.518Z,17.30
2022-08-25T05:25:20.665Z,14.82
2022-08-25T05:27:50.190Z,17.55
2022-08-25T05:30:18.494Z,15.23
2022-08-25T05:32:46.666Z,16.63
2022-08-25T05:35:15.569Z,16.73
2022-08-25T05:37:44.018Z,16.98
2022-08-25T05:40:12.249Z,17.25
2022-08-25T05:42:40.425Z,15.98
2022-08-25T05:45:16.658Z,17.88
2022-08-25T05:47:48.908Z,15.68
2022-08-25T05:50:17.687Z,17.70
2022-08-25T05:52:46.714Z,16.33
2022-08-25T05:55:15.661Z,21.23
2022-08-25T05:57:43.903Z,16.13
2022-08-25T06:00:14.525Z,16.40
2022-08-25T06:02:43.660Z,19.10
2022-08-25T06:05:13.683Z,15.40
2022-08-25T06:07:41.777Z,16.33
2022-08-25T06:10:11.956Z,17.52
2022-08-25T06:12:42.242Z,17.20
2022-08-25T06:15:14.348Z,17.25
2022-08-25T06:17:43.122Z,19.25
2022-08-25T06:20:14.260Z,17.42
2022-08-25T06:22:43.138Z,18.05
2022-08-25T06:25:13.058Z,17.65
2022-08-25T06:27:41.547Z,17.60
2022-08-25T06:30:12.831Z,17.77
2022-08-25T06:32:47.076Z,17.25
2022-08-25T06:35:19.109Z,19.10
2022-08-25T06:37:48.141Z,20.17
2022-08-25T06:40:17.071Z,18.67
2022-08-25T06:42:49.959Z,20.27
2022-08-25T06:45:19.387Z,19.00
2022-08-25T06:47:48.917Z,18.70
2022-08-25T06:50:16.941Z,20.92
2022-08-25T06:52:44.948Z,18.45
2022-08-25T06:55:13.072Z,22.88
2022-08-25T06:57:41.179Z,18.70
2022-08-25T07:00:10.874Z,16.10
2022-08-25T07:02:40.652Z,17.92
2022-08-25T07:05:17.087Z,17.88
2022-08-25T07:07:54.928Z,21.88
2022-08-25T07:10:23.180Z,19.52
2022-08-25T07:12:51.831Z,19.48
2022-08-25T07:15:20.901Z,18.88
2022-08-25T07:17:50.631Z,21.83
2022-08-25T07:20:20.816Z,21.00
2022-08-25T07:22:49.527Z,21.27
2022-08-25T07:25:18.064Z,21.05
2022-08-25T07:27:46.917Z,18.00
2022-08-25T07:30:15.255Z,18.95
2022-08-25T07:32:43.481Z,15.48
2022-08-25T07:35:18.862Z,22.98
2022-08-25T07:37:50.714Z,21.90
2022-08-25T07:40:23.048Z,20.63
2022-08-25T07:42:53.560Z,19.27
2022-08-25T07:45:29.637Z,17.73
2022-08-25T07:47:58.368Z,19.88
2022-08-25T07:50:26.994Z,18.23
2022-08-25T07:52:56.748Z,18.45
2022-08-25T07:55:27.160Z,17.75
2022-08-25T07:57:57.386Z,19.02
2022-08-25T08:00:28.021Z,17.48
2022-08-25T08:02:56.620Z,18.17
2022-08-25T08:05:24.974Z,18.70
2022-08-25T08:07:53.173Z,17.55
2022-08-25T08:13:18.054Z,19.10
2022-08-25T08:15:47.557Z,17.73
2022-08-25T08:18:16.051Z,17.10
2022-08-25T08:20:45.522Z,17.33
2022-08-25T08:23:13.720Z,17.60
2022-08-25T08:25:43.199Z,15.60
2022-08-25T08:28:11.367Z,16.10
2022-08-25T08:30:39.473Z,18.10
2022-08-25T08:33:11.232Z,17.55
2022-08-25T08:35:40.887Z,18.13
2022-08-25T08:38:14.421Z,16.73
2022-08-25T08:41:22.038Z,16.63
2022-08-25T08:43:57.588Z,15.38
2022-08-25T08:46:27.926Z,15.45
2022-08-25T08:49:02.981Z,14.98
2022-08-25T08:51:39.316Z,18.27
2022-08-25T08:54:15.045Z,17.75
2022-08-25T08:56:49.746Z,17.02
2022-08-25T08:59:21.493Z,18.48
2022-08-25T09:01:54.480Z,16.27
2022-08-25T09:04:28.791Z,15.10
2022-08-25T09:06:58.660Z,15.55
2022-08-25T09:09:30.770Z,17.75
2022-08-25T09:12:12.858Z,16.40
2022-08-25T09:14:58.421Z,14.13
2022-08-25T09:17:43.928Z,18.05
2022-08-25T09:20:49.767Z,13.93
2022-08-25T09:23:32.685Z,17.85
2022-08-25T09:26:09.015Z,15.15
2022-08-25T09:28:44.553Z,14.93
2022-08-25T09:31:26.361Z,13.52
2022-08-25T09:33:59.201Z,16.23
2022-08-25T09:36:28.676Z,12.73
2022-08-25T09:38:57.172Z,15.13
2022-08-25T09:41:43.097Z,15.23
2022-08-25T09:44:21.883Z,16.48
2022-08-25T09:47:02.197Z,13.30
2022-08-25T09:49:37.962Z,16.98
2022-08-25T09:52:25.523Z,14.48
2022-08-25T09:54:54.896Z,13.07
2022-08-25T09:57:32.233Z,15.27
2022-08-25T10:00:17.437Z,13.95
2022-08-25T10:02:47.108Z,14.50
2022-08-25T10:05:22.905Z,11.45
2022-08-25T10:07:55.677Z,16.88
2022-08-25T10:10:32.237Z,15.43
2022-08-25T10:13:03.531Z,13.13
2022-08-25T10:15:38.769Z,13.80
2022-08-25T10:18:22.110Z,15.13
2022-08-25T10:21:07.590Z,12.85
2022-08-25T10:23:39.133Z,13.70
2022-08-25T10:26:14.386Z,14.77
2022-08-25T10:28:55.144Z,11.35
2022-08-25T10:31:34.660Z,13.23
2022-08-25T10:34:14.141Z,11.93
2022-08-25T10:36:54.038Z,13.70
2022-08-25T10:39:36.703Z,12.55
2022-08-25T10:42:33.264Z,13.07
2022-08-25T10:45:38.403Z,11.85
2022-08-25T10:48:35.693Z,14.60
2022-08-25T10:51:25.305Z,14.90
2022-08-25T10:54:06.306Z,11.13
2022-08-25T10:56:40.730Z,14.57
2022-08-25T10:59:43.535Z,15.35
2022-08-25T11:02:38.335Z,13.10
2022-08-25T11:05:16.641Z,14.70
2022-08-25T11:07:59.183Z,16.80
2022-08-25T11:10:40.967Z,14.18
2022-08-25T11:13:15.747Z,12.70
2022-08-25T11:16:16.103Z,13.05
2022-08-25T11:18:49.291Z,12.68
2022-08-25T11:21:26.157Z,16.52
2022-08-25T11:24:00.133Z,13.07
2022-08-25T11:26:36.949Z,11.55
2022-08-25T11:29:12.050Z,13.88
2022-08-25T11:31:48.342Z,12.50
2022-08-25T11:34:22.543Z,13.00
2022-08-25T11:36:56.376Z,11.43
2022-08-25T11:39:37.464Z,15.05
2022-08-25T11:42:19.260Z,14.68
2022-08-25T11:44:55.689Z,12.30
2022-08-25T11:47:41.933Z,12.50
2022-08-25T11:50:29.895Z,9.93
2022-08-25T11:53:04.202Z,11.10
2022-08-25T11:55:51.018Z,11.18
2022-08-25T11:58:31.739Z,11.32
2022-08-25T12:01:01.652Z,12.40
2022-08-25T12:04:12.578Z,10.43
2022-08-25T12:07:32.217Z,12.40
2022-08-25T12:10:26.883Z,14.35
2022-08-25T12:13:04.847Z,12.00
2022-08-25T12:16:00.511Z,13.85
2022-08-25T12:18:46.355Z,10.98
2022-08-25T12:21:31.351Z,11.82
2022-08-25T12:24:17.543Z,12.77
2022-08-25T12:26:56.434Z,13.27
2022-08-25T12:29:42.331Z,13.43
2022-08-25T12:32:46.369Z,12.27
2022-08-25T12:35:27.203Z,13.00
2022-08-25T12:38:02.559Z,14.43
2022-08-25T12:40:35.660Z,11.55
2022-08-25T12:43:09.837Z,12.35
2022-08-25T12:45:46.803Z,13.85
2022-08-25T12:48:57.970Z,14.32
2022-08-25T12:51:28.216Z,14.10
2022-08-25T12:54:05.444Z,11.70
2022-08-25T12:56:39.484Z,12.32
2022-08-25T12:59:18.446Z,14.13
2022-08-25T13:02:12.474Z,9.85
2022-08-25T13:05:18.924Z,14.27
2022-08-25T13:08:02.451Z,13.40
2022-08-25T13:10:47.207Z,11.88
2022-08-25T13:13:23.756Z,15.02
2022-08-25T13:16:02.348Z,11.38
2022-08-25T13:18:32.856Z,11.95
2022-08-25T13:21:08.585Z,13.52
2022-08-25T13:23:42.059Z,13.95
2022-08-25T13:26:13.599Z,11.38
2022-08-25T13:28:50.367Z,12.30
2022-08-25T13:31:22.625Z,11.65
2022-08-25T13:33:54.877Z,14.10
2022-08-25T13:36:47.065Z,12.18
2022-08-25T13:39:45.532Z,12.40
2022-08-25T13:42:16.185Z,12.63
2022-08-25T13:44:52.026Z,11.10
2022-08-25T13:47:43.712Z,15.70
2022-08-25T13:50:26.437Z,11.35
2022-08-25T13:52:58.122Z,14.95
2022-08-25T13:55:31.003Z,12.85
2022-08-25T13:58:14.463Z,12.75
2022-08-25T14:00:46.469Z,13.13
2022-08-25T14:06:20.594Z,15.45
2022-08-25T14:09:08.096Z,12.93
2022-08-25T14:11:46.572Z,13.98
2022-08-25T14:14:32.184Z,14.95
2022-08-25T14:17:21.806Z,12.98
2022-08-25T14:19:55.444Z,13.77
2022-08-25T14:22:25.677Z,13.70
2022-08-25T14:24:55.423Z,13.50
2022-08-25T14:27:23.992Z,14.10
2022-08-25T14:29:53.008Z,11.85
2022-08-25T14:32:21.531Z,14.65
2022-08-25T14:34:50.163Z,14.50
2022-08-25T14:37:25.322Z,15.88
2022-08-25T14:39:55.603Z,13.93
2022-08-25T14:42:26.230Z,13.77
2022-08-25T14:44:54.796Z,15.07
2022-08-25T14:47:25.459Z,12.73
2022-08-25T14:49:53.874Z,16.95
2022-08-25T14:52:26.821Z,12.60
2022-08-25T14:54:57.273Z,15.57
2022-08-25T14:57:25.642Z,16.25
2022-08-25T14:59:54.224Z,15.35
2022-08-25T15:02:29.506Z,14.32
2022-08-25T15:05:02.232Z,18.48
2022-08-25T15:07:49.475Z,13.18
2022-08-25T15:10:19.522Z,16.13
2022-08-25T15:12:53.848Z,12.63
2022-08-25T15:15:26.370Z,14.25
2022-08-25T15:17:59.303Z,13.05
2022-08-25T15:20:29.422Z,15.48
2022-08-25T15:22:59.183Z,15.30
2022-08-25T15:25:29.215Z,16.42
2022-08-25T15:27:58.416Z,17.85
2022-08-25T15:30:31.195Z,13.23
2022-08-25T15:32:59.805Z,15.30
2022-08-25T15:35:29.272Z,18.60
2022-08-25T15:37:57.802Z,15.30
2022-08-25T15:40:26.412Z,15.10
2022-08-25T15:42:56.356Z,15.32
2022-08-25T15:45:24.636Z,14.65
2022-08-25T15:47:53.973Z,14.18
2022-08-25T15:50:26.061Z,13.02
2022-08-25T15:52:54.812Z,13.13
2022-08-25T15:55:23.247Z,14.45
2022-08-25T15:57:51.924Z,15.68
2022-08-25T16:00:22.087Z,15.02
2022-08-25T16:02:50.852Z,13.45
2022-08-25T16:05:25.135Z,14.40
2022-08-25T16:07:54.322Z,13.73
2022-08-25T16:10:22.721Z,13.95
2022-08-25T16:12:51.895Z,15.23
2022-08-25T16:15:24.051Z,13.57
2022-08-25T16:17:57.130Z,16.63
2022-08-25T16:20:26.563Z,16.75
2022-08-25T16:22:54.834Z,12.90
2022-08-25T16:25:23.960Z,16.35
2022-08-25T16:27:52.366Z,14.90
2022-08-25T16:30:22.464Z,15.18
2022-08-25T16:32:50.786Z,19.45
2022-08-25T16:35:19.293Z,15.88
2022-08-25T16:37:48.709Z,16.13
2022-08-25T16:40:19.114Z,17.50
2022-08-25T16:42:48.488Z,13.65
2022-08-25T16:45:17.727Z,14.73
2022-08-25T16:47:47.530Z,13.60
2022-08-25T16:50:16.931Z,16.83
2022-08-25T16:53:02.934Z,17.55
2022-08-25T16:55:39.337Z,16.45
2022-08-25T16:58:08.846Z,19.65
2022-08-25T17:00:41.882Z,17.10
2022-08-25T17:03:14.651Z,17.55
2022-08-25T17:05:44.670Z,15.40
2022-08-25T17:08:31.711Z,16.92
2022-08-25T17:11:09.225Z,19.10
2022-08-25T17:13:38.923Z,18.55
2022-08-25T17:16:13.390Z,13.55
2022-08-25T17:18:47.876Z,15.70
2022-08-25T17:21:23.934Z,17.10
2022-08-25T17:23:54.161Z,16.98
2022-08-25T17:26:27.703Z,17.85
2022-08-25T17:28:57.602Z,16.45
2022-08-25T17:31:29.993Z,16.95
2022-08-25T17:34:00.682Z,16.70
2022-08-25T17:36:29.433Z,16.30
2022-08-25T17:38:57.695Z,17.00
2022-08-25T17:41:26.476Z,18.05
2022-08-25T17:43:54.766Z,17.00
2022-08-25T17:46:27.412Z,16.73
2022-08-25T17:48:56.064Z,17.63
2022-08-25T17:51:25.845Z,18.88
2022-08-25T17:53:54.431Z,16.13
2022-08-25T17:56:25.911Z,17.52
2022-08-25T17:58:56.881Z,17.40
2022-08-25T18:01:28.199Z,18.42
2022-08-25T18:03:57.441Z,14.13
2022-08-25T18:06:29.606Z,15.00
2022-08-25T18:09:01.547Z,17.30
2022-08-25T18:11:31.669Z,18.23
2022-08-25T18:14:01.006Z,15.30
2022-08-25T18:16:31.363Z,15.23
2022-08-25T18:18:59.771Z,16.88
2022-08-25T18:21:31.839Z,15.70
2022-08-25T18:24:01.787Z,15.70
2022-08-25T18:26:30.933Z,15.98
2022-08-25T18:29:00.329Z,16.60
2022-08-25T18:31:28.979Z,14.77
2022-08-25T18:33:57.393Z,15.82
2022-08-25T18:36:25.722Z,15.07
2022-08-25T18:39:13.647Z,17.50
2022-08-25T18:41:45.074Z,16.67
2022-08-25T18:44:15.512Z,17.75
2022-08-25T18:46:45.537Z,16.25
2022-08-25T18:49:17.242Z,17.80
2022-08-25T18:51:46.319Z,15.98
2022-08-25T18:54:23.687Z,19.90
2022-08-25T18:56:53.942Z,17.42
2022-08-25T18:59:23.760Z,18.98
2022-08-25T19:01:53.938Z,15.82
2022-08-25T19:04:28.618Z,15.85
2022-08-25T19:07:01.018Z,18.77
2022-08-25T19:09:31.402Z,16.83
2022-08-25T19:11:59.788Z,16.40
2022-08-25T19:14:28.489Z,16.80
2022-08-25T19:16:58.096Z,21.08
2022-08-25T19:19:26.518Z,18.67
2022-08-25T19:21:54.887Z,19.92
2022-08-25T19:24:23.212Z,16.70
2022-08-25T19:26:54.758Z,18.20
2022-08-25T19:29:24.001Z,18.45
2022-08-25T19:31:53.343Z,15.82
2022-08-25T19:34:28.231Z,16.92
2022-08-25T19:37:00.165Z,16.65
2022-08-25T19:39:28.664Z,17.50
2022-08-25T19:42:00.341Z,17.80
2022-08-25T19:44:31.964Z,17.25
2022-08-25T19:47:00.754Z,17.30
2022-08-25T19:49:32.808Z,15.18
2022-08-25T19:52:02.312Z,17.55
2022-08-25T19:54:35.535Z,17.17
2022-08-25T19:57:07.885Z,17.73
2022-08-25T19:59:43.473Z,16.15
2022-08-25T20:02:15.445Z,16.60
2022-08-25T20:04:49.964Z,20.75
2022-08-25T20:07:20.152Z,17.40
2022-08-25T20:09:49.387Z,16.83
2022-08-25T20:12:20.369Z,15.55
2022-08-25T20:14:50.027Z,15.82
2022-08-25T20:17:24.772Z,15.07
2022-08-25T20:19:57.164Z,17.85
2022-08-25T20:22:27.060Z,20.38
2022-08-25T20:24:58.559Z,17.45
2022-08-25T20:27:33.848Z,20.10
2022-08-25T20:30:03.420Z,18.08
2022-08-25T20:32:32.757Z,15.93
2022-08-25T20:35:01.813Z,16.17
2022-08-25T20:37:30.440Z,19.38
2022-08-25T20:39:59.020Z,18.92
2022-08-25T20:42:29.236Z,16.05
2022-08-25T20:44:58.047Z,20.60
2022-08-25T20:47:26.775Z,19.08
2022-08-25T20:49:55.303Z,17.85
2022-08-25T20:52:23.668Z,19.15
2022-08-25T20:54:52.941Z,20.05
2022-08-25T20:57:24.327Z,17.15
2022-08-25T20:59:56.255Z,17.55
2022-08-25T21:02:25.415Z,16.30
2022-08-25T21:04:54.109Z,17.38
2022-08-25T21:07:26.497Z,17.20
2022-08-25T21:09:56.539Z,15.25
2022-08-25T21:12:25.069Z,16.52
2022-08-25T21:14:56.714Z,20.30
2022-08-25T21:17:25.698Z,17.02
2022-08-25T21:19:54.064Z,17.17
2022-08-25T21:22:22.815Z,17.20
2022-08-25T21:24:51.609Z,17.73
2022-08-25T21:27:20.294Z,18.08
2022-08-25T21:29:55.088Z,17.55
2022-08-25T21:32:25.511Z,17.38
2022-08-25T21:34:54.809Z,18.10
2022-08-25T21:37:23.170Z,17.90
2022-08-25T21:39:51.696Z,18.27
2022-08-25T21:42:21.137Z,15.50
2022-08-25T21:44:50.620Z,19.98
2022-08-25T21:47:20.890Z,17.63
2022-08-25T21:49:50.797Z,17.00
2022-08-25T21:52:19.439Z,16.13
2022-08-25T21:54:47.882Z,17.20
2022-08-25T21:57:19.147Z,17.73
2022-08-25T21:59:52.044Z,15.48
2022-08-25T22:02:23.272Z,19.17
2022-08-25T22:04:56.271Z,17.95
2022-08-25T22:07:24.945Z,17.15
2022-08-25T22:09:55.094Z,16.63
2022-08-25T22:12:25.016Z,19.40
2022-08-25T22:14:53.570Z,16.92
2022-08-25T22:17:24.297Z,18.42
2022-08-25T22:19:54.132Z,20.20
2022-08-25T22:22:24.515Z,16.08
2022-08-25T22:24:53.996Z,18.33
2022-08-25T22:27:23.546Z,16.27
2022-08-25T22:29:52.874Z,20.08
2022-08-25T22:32:21.721Z,18.05
2022-08-25T22:34:50.362Z,16.33
2022-08-25T22:37:19.113Z,20.30
2022-08-25T22:39:48.952Z,18.85
2022-08-25T22:42:18.487Z,17.45
2022-08-25T22:44:46.969Z,17.25
2022-08-25T22:47:17.703Z,17.45
2022-08-25T22:49:46.546Z,19.13
2022-08-25T22:52:16.010Z,19.15
2022-08-25T22:54:44.292Z,18.33
2022-08-25T22:57:14.156Z,18.88
2022-08-25T22:59:42.687Z,19.10
2022-08-25T23:02:11.217Z,22.20
2022-08-25T23:04:41.107Z,17.00
2022-08-25T23:07:12.435Z,19.75
2022-08-25T23:09:40.518Z,20.52
2022-08-25T23:12:11.162Z,19.33
2022-08-25T23:14:42.328Z,22.50
2022-08-25T23:17:12.565Z,21.15
2022-08-25T23:19:40.601Z,17.52
2022-08-25T23:22:10.859Z,19.45
2022-08-25T23:24:42.720Z,17.50
2022-08-25T23:27:13.426Z,19.38
2022-08-25T23:29:45.059Z,20.63
2022-08-25T23:32:14.358Z,20.45
2022-08-25T23:34:43.878Z,19.75
2022-08-25T23:37:18.367Z,20.85
2022-08-25T23:39:49.651Z,17.38
2022-08-25T23:42:19.276Z,19.55
2022-08-25T23:44:49.046Z,18.55
2022-08-25T23:47:17.437Z,18.05
2022-08-25T23:49:45.840Z,18.25
2022-08-25T23:52:17.187Z,18.75
2022-08-25T23:54:45.769Z,19.48
2022-08-25T23:57:13.805Z,16.33
2022-08-25T23:59:43.286Z,19.90
